createdAt,value
2019-01-15T00:00:53.682Z,1002.63
2019-01-15T00:01:53.701Z,1002.66
2019-01-15T00:02:53.648Z,1002.70
2019-01-15T00:03:53.641Z,1002.73
2019-01-15T00:04:53.630Z,1002.68
2019-01-15T00:05:53.628Z,1002.75
2019-01-15T00:06:53.623Z,1002.73
2019-01-15T00:07:53.606Z,1002.74
2019-01-15T00:08:53.594Z,1002.76
2019-01-15T00:09:53.580Z,1002.76
2019-01-15T00:10:53.562Z,1002.68
2019-01-15T00:11:53.571Z,1002.69
2019-01-15T00:12:53.536Z,1002.74
2019-01-15T00:13:53.531Z,1002.71
2019-01-15T00:14:53.542Z,1002.74
2019-01-15T00:15:53.511Z,1002.80
2019-01-15T00:16:53.527Z,1002.83
2019-01-15T00:17:53.478Z,1002.81
2019-01-15T00:18:53.475Z,1002.74
2019-01-15T00:19:53.480Z,1002.81
2019-01-15T00:20:53.449Z,1002.79
2019-01-15T00:21:53.462Z,1002.68
2019-01-15T00:22:53.424Z,1002.70
2019-01-15T00:23:53.426Z,1002.71
2019-01-15T00:24:53.409Z,1002.72
2019-01-15T00:25:53.403Z,1002.72
2019-01-15T00:26:53.396Z,1002.70
2019-01-15T00:27:53.374Z,1002.70
2019-01-15T00:28:53.362Z,1002.74
2019-01-15T00:29:53.353Z,1002.75
2019-01-15T00:30:53.339Z,1002.79
2019-01-15T00:31:53.348Z,1002.78
2019-01-15T00:32:53.338Z,1002.76
2019-01-15T00:33:53.308Z,1002.86
2019-01-15T00:34:53.296Z,1002.81
2019-01-15T00:35:53.276Z,1002.81
2019-01-15T00:36:53.284Z,1002.85
2019-01-15T00:37:53.292Z,1002.82
2019-01-15T00:38:53.274Z,1002.74
2019-01-15T00:39:53.236Z,1002.82
2019-01-15T00:40:53.228Z,1002.90
2019-01-15T00:41:53.216Z,1002.91
2019-01-15T00:42:53.249Z,1002.87
2019-01-15T00:43:53.206Z,1002.83
2019-01-15T00:44:53.181Z,1002.85
2019-01-15T00:45:53.166Z,1002.82
2019-01-15T00:46:53.155Z,1002.87
2019-01-15T00:47:53.172Z,1002.86
2019-01-15T00:48:53.140Z,1002.91
2019-01-15T00:49:53.152Z,1002.92
2019-01-15T00:50:53.123Z,1002.87
2019-01-15T00:51:53.104Z,1002.98
2019-01-15T00:52:53.113Z,1002.86
2019-01-15T00:53:53.092Z,1002.92
2019-01-15T00:54:53.067Z,1002.95
2019-01-15T00:55:53.058Z,1002.86
2019-01-15T00:56:53.044Z,1002.94
2019-01-15T00:57:53.085Z,1002.97
2019-01-15T00:58:53.031Z,1002.92
2019-01-15T00:59:53.015Z,1002.96
2019-01-15T01:00:53.042Z,1002.93
2019-01-15T01:01:53.002Z,1002.99
2019-01-15T01:02:52.998Z,1002.98
2019-01-15T01:03:52.976Z,1002.97
2019-01-15T01:04:52.966Z,1002.98
2019-01-15T01:05:52.948Z,1002.99
2019-01-15T01:06:52.932Z,1002.98
2019-01-15T01:07:52.946Z,1003.04
2019-01-15T01:08:52.906Z,1002.92
2019-01-15T01:09:52.992Z,1003.05
2019-01-15T01:10:52.951Z,1002.92
2019-01-15T01:11:52.892Z,1003.00
2019-01-15T01:12:52.899Z,1003.02
2019-01-15T01:13:52.850Z,1003.02
2019-01-15T01:14:52.857Z,1002.98
2019-01-15T01:15:52.830Z,1003.06
2019-01-15T01:16:52.865Z,1003.04
2019-01-15T01:17:52.859Z,1003.07
2019-01-15T01:18:52.800Z,1003.10
2019-01-15T01:19:52.794Z,1003.09
2019-01-15T01:20:52.785Z,1003.07
2019-01-15T01:21:52.766Z,1003.11
2019-01-15T01:22:52.752Z,1003.09
2019-01-15T01:23:52.778Z,1003.13
2019-01-15T01:24:52.763Z,1003.22
2019-01-15T01:25:52.748Z,1003.11
2019-01-15T01:26:52.708Z,1003.17
2019-01-15T01:27:52.701Z,1003.10
2019-01-15T01:28:52.713Z,1003.08
2019-01-15T01:29:52.680Z,1003.12
2019-01-15T01:30:52.668Z,1003.24
2019-01-15T01:31:52.654Z,1003.30
2019-01-15T01:32:52.651Z,1003.27
2019-01-15T01:33:52.667Z,1003.21
2019-01-15T01:34:52.620Z,1003.30
2019-01-15T01:35:52.626Z,1003.27
2019-01-15T01:36:52.607Z,1003.25
2019-01-15T01:37:52.591Z,1003.30
2019-01-15T01:38:52.591Z,1003.23
2019-01-15T01:39:52.561Z,1003.32
2019-01-15T01:40:52.569Z,1003.34
2019-01-15T01:41:52.545Z,1003.39
2019-01-15T01:42:52.528Z,1003.32
2019-01-15T01:43:52.556Z,1003.40
2019-01-15T01:44:52.515Z,1003.38
2019-01-15T01:45:52.500Z,1003.37
2019-01-15T01:46:52.483Z,1003.43
2019-01-15T01:47:52.475Z,1003.46
2019-01-15T01:48:52.489Z,1003.46
2019-01-15T01:49:52.468Z,1003.41
2019-01-15T01:50:52.454Z,1003.45
2019-01-15T01:51:52.430Z,1003.46
2019-01-15T01:52:52.420Z,1003.43
2019-01-15T01:53:52.454Z,1003.39
2019-01-15T01:54:52.397Z,1003.45
2019-01-15T01:55:52.389Z,1003.47
2019-01-15T01:56:52.377Z,1003.46
2019-01-15T01:57:52.369Z,1003.49
2019-01-15T01:58:52.382Z,1003.50
2019-01-15T01:59:52.338Z,1003.49
2019-01-15T02:00:52.329Z,1003.46
2019-01-15T02:01:52.331Z,1003.51
2019-01-15T02:02:52.311Z,1003.47
2019-01-15T02:03:52.299Z,1003.56
2019-01-15T02:04:52.297Z,1003.48
2019-01-15T02:05:52.269Z,1003.52
2019-01-15T02:06:52.260Z,1003.61
2019-01-15T02:07:52.266Z,1003.56
2019-01-15T02:08:52.242Z,1003.61
2019-01-15T02:09:52.251Z,1003.60
2019-01-15T02:10:52.225Z,1003.58
2019-01-15T02:11:52.214Z,1003.60
2019-01-15T02:12:52.195Z,1003.64
2019-01-15T02:13:52.184Z,1003.71
2019-01-15T02:14:52.189Z,1003.64
2019-01-15T02:15:52.161Z,1003.61
2019-01-15T02:16:52.177Z,1003.59
2019-01-15T02:17:52.137Z,1003.60
2019-01-15T02:18:52.126Z,1003.65
2019-01-15T02:19:52.134Z,1003.61
2019-01-15T02:20:52.103Z,1003.63
2019-01-15T02:21:52.091Z,1003.63
2019-01-15T02:22:52.095Z,1003.60
2019-01-15T02:23:52.101Z,1003.64
2019-01-15T02:24:52.097Z,1003.59
2019-01-15T02:25:52.049Z,1003.62
2019-01-15T02:26:52.036Z,1003.66
2019-01-15T02:27:52.038Z,1003.68
2019-01-15T02:28:52.015Z,1003.71
2019-01-15T02:29:52.023Z,1003.71
2019-01-15T02:30:52.003Z,1003.64
2019-01-15T02:31:51.981Z,1003.67
2019-01-15T02:32:51.987Z,1003.76
2019-01-15T02:33:51.960Z,1003.74
2019-01-15T02:34:51.973Z,1003.77
2019-01-15T02:35:51.939Z,1003.86
2019-01-15T02:36:51.928Z,1003.73
2019-01-15T02:37:51.922Z,1003.73
2019-01-15T02:38:51.909Z,1003.70
2019-01-15T02:39:51.921Z,1003.79
2019-01-15T02:40:51.920Z,1003.72
2019-01-15T02:41:51.876Z,1003.83
2019-01-15T02:42:51.862Z,1003.81
2019-01-15T02:43:51.847Z,1003.74
2019-01-15T02:44:51.860Z,1003.80
2019-01-15T02:45:51.927Z,1003.84
2019-01-15T02:46:51.825Z,1003.85
2019-01-15T02:47:51.811Z,1003.92
2019-01-15T02:48:51.801Z,1003.93
2019-01-15T02:49:51.797Z,1003.92
2019-01-15T02:50:51.775Z,1003.92
2019-01-15T02:51:51.777Z,1003.90
2019-01-15T02:52:51.755Z,1003.81
2019-01-15T02:53:51.736Z,1003.83
2019-01-15T02:54:51.753Z,1003.75
2019-01-15T02:55:51.720Z,1003.74
2019-01-15T02:56:51.708Z,1003.77
2019-01-15T02:57:51.718Z,1003.80
2019-01-15T02:58:51.688Z,1003.86
2019-01-15T02:59:51.682Z,1003.86
2019-01-15T03:00:51.658Z,1003.84
2019-01-15T03:01:51.646Z,1003.86
2019-01-15T03:02:51.638Z,1003.82
2019-01-15T03:03:51.628Z,1003.77
2019-01-15T03:04:51.633Z,1003.84
2019-01-15T03:05:51.609Z,1003.85
2019-01-15T03:06:51.692Z,1003.90
2019-01-15T03:07:51.609Z,1003.85
2019-01-15T03:08:51.575Z,1003.94
2019-01-15T03:09:51.576Z,1003.91
2019-01-15T03:10:51.567Z,1003.85
2019-01-15T03:11:51.535Z,1003.76
2019-01-15T03:12:55.466Z,1003.78
2019-01-15T03:13:51.520Z,1003.80
2019-01-15T03:14:51.520Z,1003.79
2019-01-15T03:15:51.511Z,1003.85
2019-01-15T03:16:51.515Z,1003.88
2019-01-15T03:17:51.476Z,1003.86
2019-01-15T03:18:51.455Z,1003.85
2019-01-15T03:19:51.494Z,1003.91
2019-01-15T03:20:51.445Z,1003.90
2019-01-15T03:21:51.433Z,1003.88
2019-01-15T03:22:51.422Z,1003.84
2019-01-15T03:23:51.402Z,1003.89
2019-01-15T03:24:51.396Z,1003.86
2019-01-15T03:25:51.404Z,1003.90
2019-01-15T03:26:51.395Z,1003.87
2019-01-15T03:27:51.368Z,1003.93
2019-01-15T03:28:51.344Z,1003.93
2019-01-15T03:29:51.347Z,1003.85
2019-01-15T03:30:51.348Z,1003.86
2019-01-15T03:31:51.315Z,1003.89
2019-01-15T03:32:51.315Z,1003.79
2019-01-15T03:33:51.294Z,1003.82
2019-01-15T03:34:51.276Z,1003.87
2019-01-15T03:35:51.288Z,1003.74
2019-01-15T03:36:51.268Z,1003.86
2019-01-15T03:37:51.252Z,1003.87
2019-01-15T03:38:51.232Z,1003.84
2019-01-15T03:39:51.224Z,1003.93
2019-01-15T03:40:51.261Z,1003.91
2019-01-15T03:41:51.200Z,1003.82
2019-01-15T03:42:51.247Z,1003.89
2019-01-15T03:43:51.193Z,1003.89
2019-01-15T03:44:51.228Z,1003.91
2019-01-15T03:45:51.172Z,1003.82
2019-01-15T03:46:51.148Z,1003.89
2019-01-15T03:47:51.135Z,1003.97
2019-01-15T03:48:51.137Z,1003.88
2019-01-15T03:49:51.122Z,1003.90
2019-01-15T03:50:51.119Z,1003.95
2019-01-15T03:51:51.096Z,1003.95
2019-01-15T03:52:51.082Z,1003.98
2019-01-15T03:53:51.066Z,1003.92
2019-01-15T03:54:51.057Z,1003.96
2019-01-15T03:55:51.058Z,1003.99
2019-01-15T03:56:51.040Z,1003.99
2019-01-15T03:57:51.026Z,1003.91
2019-01-15T03:58:51.010Z,1003.93
2019-01-15T03:59:51.002Z,1003.94
2019-01-15T04:00:51.015Z,1003.90
2019-01-15T04:01:50.981Z,1003.94
2019-01-15T04:02:50.974Z,1004.02
2019-01-15T04:03:50.954Z,1004.02
2019-01-15T04:04:50.952Z,1004.05
2019-01-15T04:05:50.974Z,1003.99
2019-01-15T04:06:50.936Z,1004.01
2019-01-15T04:07:50.921Z,1004.05
2019-01-15T04:08:50.904Z,1003.97
2019-01-15T04:09:50.887Z,1004.09
2019-01-15T04:10:50.903Z,1003.98
2019-01-15T04:11:50.876Z,1004.03
2019-01-15T04:12:50.857Z,1003.99
2019-01-15T04:13:50.861Z,1004.00
2019-01-15T04:14:50.833Z,1004.09
2019-01-15T04:15:50.820Z,1004.08
2019-01-15T04:16:50.830Z,1004.08
2019-01-15T04:17:50.801Z,1004.15
2019-01-15T04:18:50.788Z,1004.12
2019-01-15T04:19:50.795Z,1004.10
2019-01-15T04:20:50.811Z,1004.09
2019-01-15T04:21:50.780Z,1004.10
2019-01-15T04:22:50.745Z,1004.14
2019-01-15T04:23:50.730Z,1004.20
2019-01-15T04:24:50.728Z,1004.21
2019-01-15T04:25:50.718Z,1004.16
2019-01-15T04:26:50.736Z,1004.24
2019-01-15T04:27:50.689Z,1004.24
2019-01-15T04:28:50.676Z,1004.22
2019-01-15T04:29:50.666Z,1004.15
2019-01-15T04:30:50.657Z,1004.19
2019-01-15T04:31:50.660Z,1004.18
2019-01-15T04:32:50.663Z,1004.00
2019-01-15T04:33:50.626Z,1004.11
2019-01-15T04:34:50.608Z,1004.26
2019-01-15T04:35:50.601Z,1004.15
2019-01-15T04:36:50.603Z,1004.15
2019-01-15T04:37:50.591Z,1004.11
2019-01-15T04:38:50.603Z,1004.11
2019-01-15T04:39:50.552Z,1004.10
2019-01-15T04:40:50.541Z,1004.06
2019-01-15T04:41:50.557Z,1004.07
2019-01-15T04:42:50.532Z,1004.01
2019-01-15T04:43:50.509Z,1004.04
2019-01-15T04:44:50.503Z,1004.03
2019-01-15T04:45:50.487Z,1004.00
2019-01-15T04:46:50.499Z,1003.93
2019-01-15T04:47:50.464Z,1003.96
2019-01-15T04:48:50.472Z,1003.89
2019-01-15T04:49:50.468Z,1003.82
2019-01-15T04:50:50.447Z,1003.87
2019-01-15T04:51:50.417Z,1004.00
2019-01-15T04:52:50.423Z,1003.78
2019-01-15T04:53:50.395Z,1003.81
2019-01-15T04:54:50.430Z,1003.82
2019-01-15T04:55:50.376Z,1003.88
2019-01-15T04:56:50.362Z,1003.86
2019-01-15T04:57:50.373Z,1003.88
2019-01-15T04:58:50.343Z,1003.89
2019-01-15T04:59:50.335Z,1003.90
2019-01-15T05:00:50.325Z,1003.98
2019-01-15T05:01:50.307Z,1003.81
2019-01-15T05:02:50.328Z,1003.83
2019-01-15T05:03:50.287Z,1003.84
2019-01-15T05:04:50.274Z,1003.86
2019-01-15T05:05:50.261Z,1003.83
2019-01-15T05:06:50.259Z,1003.89
2019-01-15T05:07:50.305Z,1003.82
2019-01-15T05:08:50.236Z,1003.78
2019-01-15T05:09:50.222Z,1003.84
2019-01-15T05:10:50.213Z,1003.79
2019-01-15T05:11:50.200Z,1003.81
2019-01-15T05:12:50.207Z,1003.75
2019-01-15T05:13:50.175Z,1003.77
2019-01-15T05:14:50.172Z,1003.85
2019-01-15T05:15:50.182Z,1003.80
2019-01-15T05:16:50.152Z,1003.77
2019-01-15T05:17:50.142Z,1003.76
2019-01-15T05:18:50.114Z,1003.75
2019-01-15T05:19:50.128Z,1003.85
2019-01-15T05:20:50.088Z,1003.68
2019-01-15T05:21:50.083Z,1003.79
2019-01-15T05:22:50.098Z,1003.72
2019-01-15T05:23:50.059Z,1003.70
2019-01-15T05:24:50.046Z,1003.76
2019-01-15T05:25:50.043Z,1003.72
2019-01-15T05:26:50.050Z,1003.73
2019-01-15T05:27:50.045Z,1003.75
2019-01-15T05:28:50.014Z,1003.85
2019-01-15T05:29:49.998Z,1003.76
2019-01-15T05:30:49.985Z,1003.85
2019-01-15T05:31:49.980Z,1003.85
2019-01-15T05:32:49.962Z,1003.77
2019-01-15T05:33:49.975Z,1003.78
2019-01-15T05:34:49.943Z,1003.75
2019-01-15T05:35:49.938Z,1003.80
2019-01-15T05:36:49.917Z,1003.76
2019-01-15T05:37:49.907Z,1003.78
2019-01-15T05:38:49.913Z,1003.76
2019-01-15T05:39:49.892Z,1003.88
2019-01-15T05:40:49.878Z,1003.81
2019-01-15T05:41:49.858Z,1003.93
2019-01-15T05:42:49.856Z,1003.87
2019-01-15T05:43:49.882Z,1003.83
2019-01-15T05:44:49.821Z,1003.82
2019-01-15T05:45:49.810Z,1003.93
2019-01-15T05:46:49.806Z,1003.92
2019-01-15T05:47:49.791Z,1003.87
2019-01-15T05:48:49.801Z,1003.88
2019-01-15T05:49:50.789Z,1003.78
2019-01-15T05:50:49.798Z,1003.81
2019-01-15T05:51:50.409Z,1003.82
2019-01-15T05:52:49.738Z,1003.81
2019-01-15T05:53:49.733Z,1003.74
2019-01-15T05:54:49.731Z,1003.71
2019-01-15T05:55:49.710Z,1003.76
2019-01-15T05:56:50.241Z,1003.79
2019-01-15T05:57:49.676Z,1003.77
2019-01-15T05:58:49.687Z,1003.80
2019-01-15T05:59:49.656Z,1003.69
2019-01-15T06:00:49.657Z,1003.80
2019-01-15T06:01:49.640Z,1003.87
2019-01-15T06:02:50.946Z,1003.84
2019-01-15T06:03:49.655Z,1003.81
2019-01-15T06:04:49.602Z,1003.89
2019-01-15T06:05:49.598Z,1003.90
2019-01-15T06:06:49.629Z,1003.90
2019-01-15T06:07:49.564Z,1003.81
2019-01-15T06:08:49.614Z,1003.87
2019-01-15T06:09:49.580Z,1003.81
2019-01-15T06:10:49.525Z,1003.82
2019-01-15T06:11:49.516Z,1003.80
2019-01-15T06:12:49.509Z,1003.75
2019-01-15T06:13:49.584Z,1003.81
2019-01-15T06:14:49.485Z,1003.80
2019-01-15T06:15:49.476Z,1003.83
2019-01-15T06:16:49.458Z,1003.74
2019-01-15T06:17:49.446Z,1003.71
2019-01-15T06:18:49.463Z,1003.80
2019-01-15T06:19:49.459Z,1003.62
2019-01-15T06:20:49.428Z,1003.59
2019-01-15T06:21:49.420Z,1003.54
2019-01-15T06:22:49.418Z,1003.61
2019-01-15T06:23:49.418Z,1003.55
2019-01-15T06:24:49.394Z,1003.65
2019-01-15T06:25:49.358Z,1003.66
2019-01-15T06:26:49.347Z,1003.60
2019-01-15T06:27:49.355Z,1003.53
2019-01-15T06:28:49.332Z,1003.48
2019-01-15T06:29:49.333Z,1003.51
2019-01-15T06:30:49.306Z,1003.65
2019-01-15T06:31:49.288Z,1003.61
2019-01-15T06:32:49.282Z,1003.50
2019-01-15T06:33:49.279Z,1003.59
2019-01-15T06:34:49.274Z,1003.45
2019-01-15T06:35:49.245Z,1003.56
2019-01-15T06:36:49.239Z,1003.59
2019-01-15T06:37:49.221Z,1003.62
2019-01-15T06:38:49.214Z,1003.58
2019-01-15T06:39:49.225Z,1003.52
2019-01-15T06:40:49.213Z,1003.62
2019-01-15T06:41:49.194Z,1003.65
2019-01-15T06:42:49.167Z,1003.67
2019-01-15T06:43:50.085Z,1003.63
2019-01-15T06:44:49.158Z,1003.62
2019-01-15T06:45:49.144Z,1003.73
2019-01-15T06:46:49.142Z,1003.69
2019-01-15T06:47:49.107Z,1003.70
2019-01-15T06:48:49.104Z,1003.66
2019-01-15T06:49:49.107Z,1003.67
2019-01-15T06:50:49.082Z,1003.68
2019-01-15T06:51:49.071Z,1003.54
2019-01-15T06:52:49.049Z,1003.56
2019-01-15T06:53:49.071Z,1003.57
2019-01-15T06:54:49.064Z,1003.70
2019-01-15T06:55:49.035Z,1003.63
2019-01-15T06:56:49.008Z,1003.68
2019-01-15T06:57:48.997Z,1003.61
2019-01-15T06:58:48.998Z,1003.57
2019-01-15T06:59:49.059Z,1003.66
2019-01-15T07:00:48.967Z,1003.43
2019-01-15T07:01:48.946Z,1003.64
2019-01-15T07:02:48.943Z,1003.57
2019-01-15T07:03:48.957Z,1003.57
2019-01-15T07:04:48.917Z,1003.62
2019-01-15T07:05:48.933Z,1003.59
2019-01-15T07:06:48.891Z,1003.53
2019-01-15T07:07:48.889Z,1003.56
2019-01-15T07:08:48.893Z,1003.52
2019-01-15T07:09:48.894Z,1003.59
2019-01-15T07:10:49.470Z,1003.67
2019-01-15T07:11:48.862Z,1003.70
2019-01-15T07:12:48.825Z,1003.68
2019-01-15T07:13:48.819Z,1003.67
2019-01-15T07:14:48.811Z,1003.69
2019-01-15T07:15:48.815Z,1003.70
2019-01-15T07:16:48.781Z,1003.64
2019-01-15T07:17:48.772Z,1003.60
2019-01-15T07:18:48.768Z,1003.56
2019-01-15T07:19:48.798Z,1003.53
2019-01-15T07:20:48.843Z,1003.63
2019-01-15T07:21:48.722Z,1003.60
2019-01-15T07:22:48.710Z,1003.57
2019-01-15T07:23:48.699Z,1003.62
2019-01-15T07:24:48.685Z,1003.59
2019-01-15T07:25:48.712Z,1003.57
2019-01-15T07:26:48.668Z,1003.59
2019-01-15T07:27:48.653Z,1003.60
2019-01-15T07:28:48.643Z,1003.47
2019-01-15T07:29:48.635Z,1003.49
2019-01-15T07:30:48.659Z,1003.42
2019-01-15T07:31:48.614Z,1003.49
2019-01-15T07:32:48.599Z,1003.60
2019-01-15T07:33:48.587Z,1003.55
2019-01-15T07:34:48.587Z,1003.56
2019-01-15T07:35:48.642Z,1003.52
2019-01-15T07:36:48.555Z,1003.50
2019-01-15T07:37:48.547Z,1003.48
2019-01-15T07:38:48.533Z,1003.59
2019-01-15T07:39:48.515Z,1003.48
2019-01-15T07:40:48.512Z,1003.56
2019-01-15T07:41:48.514Z,1003.62
2019-01-15T07:42:48.486Z,1003.65
2019-01-15T07:43:48.473Z,1003.59
2019-01-15T07:44:48.463Z,1003.61
2019-01-15T07:45:48.452Z,1003.59
2019-01-15T07:46:48.464Z,1003.50
2019-01-15T07:47:48.430Z,1003.52
2019-01-15T07:48:48.430Z,1003.53
2019-01-15T07:49:48.406Z,1003.53
2019-01-15T07:50:48.400Z,1003.53
2019-01-15T07:51:48.417Z,1003.32
2019-01-15T07:52:48.374Z,1003.48
2019-01-15T07:53:48.350Z,1003.38
2019-01-15T07:54:48.348Z,1003.46
2019-01-15T07:55:48.332Z,1003.40
2019-01-15T07:56:48.375Z,1003.40
2019-01-15T07:57:48.336Z,1003.42
2019-01-15T07:58:48.326Z,1003.45
2019-01-15T07:59:48.289Z,1003.41
2019-01-15T08:00:48.276Z,1003.58
2019-01-15T08:01:48.288Z,1003.47
2019-01-15T08:02:48.307Z,1003.54
2019-01-15T08:03:48.253Z,1003.59
2019-01-15T08:04:48.232Z,1003.63
2019-01-15T08:05:48.224Z,1003.68
2019-01-15T08:06:48.229Z,1003.66
2019-01-15T08:07:48.220Z,1003.73
2019-01-15T08:08:48.195Z,1003.66
2019-01-15T08:09:48.184Z,1003.67
2019-01-15T08:10:48.160Z,1003.75
2019-01-15T08:11:48.175Z,1003.69
2019-01-15T08:12:48.141Z,1003.74
2019-01-15T08:13:48.138Z,1003.76
2019-01-15T08:14:48.119Z,1003.69
2019-01-15T08:15:48.111Z,1003.66
2019-01-15T08:16:48.122Z,1003.72
2019-01-15T08:17:48.085Z,1003.70
2019-01-15T08:18:48.077Z,1003.69
2019-01-15T08:19:48.060Z,1003.74
2019-01-15T08:20:48.069Z,1003.72
2019-01-15T08:21:48.073Z,1003.77
2019-01-15T08:22:48.033Z,1003.72
2019-01-15T08:23:48.105Z,1003.74
2019-01-15T08:24:48.008Z,1003.64
2019-01-15T08:25:47.994Z,1003.57
2019-01-15T08:26:48.039Z,1003.63
2019-01-15T08:27:47.992Z,1003.62
2019-01-15T08:28:47.963Z,1003.68
2019-01-15T08:29:47.944Z,1003.70
2019-01-15T08:30:47.945Z,1003.68
2019-01-15T08:31:47.924Z,1003.67
2019-01-15T08:32:47.939Z,1003.72
2019-01-15T08:33:47.909Z,1003.71
2019-01-15T08:34:47.891Z,1003.64
2019-01-15T08:35:47.889Z,1003.57
2019-01-15T08:36:47.870Z,1003.54
2019-01-15T08:37:47.883Z,1003.59
2019-01-15T08:38:47.848Z,1003.54
2019-01-15T08:39:47.844Z,1003.59
2019-01-15T08:40:47.830Z,1003.59
2019-01-15T08:41:47.807Z,1003.60
2019-01-15T08:42:47.825Z,1003.54
2019-01-15T08:43:47.792Z,1003.50
2019-01-15T08:44:47.786Z,1003.46
2019-01-15T08:45:47.767Z,1003.43
2019-01-15T08:46:47.754Z,1003.48
2019-01-15T08:47:47.775Z,1003.44
2019-01-15T08:48:47.735Z,1003.54
2019-01-15T08:49:47.723Z,1003.48
2019-01-15T08:50:47.709Z,1003.58
2019-01-15T08:51:47.701Z,1003.51
2019-01-15T08:52:47.711Z,1003.49
2019-01-15T08:53:47.680Z,1003.64
2019-01-15T08:54:47.677Z,1003.44
2019-01-15T08:55:47.655Z,1003.56
2019-01-15T08:56:47.640Z,1003.51
2019-01-15T08:57:47.646Z,1003.55
2019-01-15T08:58:47.621Z,1003.50
2019-01-15T08:59:47.626Z,1003.52
2019-01-15T09:00:47.642Z,1003.60
2019-01-15T09:01:47.605Z,1003.50
2019-01-15T09:02:47.598Z,1003.54
2019-01-15T09:03:47.607Z,1003.44
2019-01-15T09:04:47.555Z,1003.43
2019-01-15T09:05:47.548Z,1003.61
2019-01-15T09:06:47.534Z,1003.39
2019-01-15T09:07:47.535Z,1003.58
2019-01-15T09:08:47.529Z,1003.48
2019-01-15T09:09:47.493Z,1003.50
2019-01-15T09:10:47.526Z,1003.46
2019-01-15T09:11:47.473Z,1003.47
2019-01-15T09:12:47.461Z,1003.37
2019-01-15T09:13:47.487Z,1003.49
2019-01-15T09:14:47.443Z,1003.54
2019-01-15T09:15:47.425Z,1003.60
2019-01-15T09:16:47.421Z,1003.62
2019-01-15T09:17:47.401Z,1003.50
2019-01-15T09:18:47.409Z,1003.59
2019-01-15T09:19:47.383Z,1003.55
2019-01-15T09:20:47.369Z,1003.61
2019-01-15T09:21:47.356Z,1003.58
2019-01-15T09:22:47.352Z,1003.55
2019-01-15T09:23:47.347Z,1003.65
2019-01-15T09:24:47.325Z,1003.72
2019-01-15T09:25:47.307Z,1003.71
2019-01-15T09:26:47.297Z,1003.76
2019-01-15T09:27:47.287Z,1003.67
2019-01-15T09:28:47.297Z,1003.65
2019-01-15T09:29:47.269Z,1003.64
2019-01-15T09:30:47.282Z,1003.72
2019-01-15T09:31:47.248Z,1003.69
2019-01-15T09:32:47.228Z,1003.76
2019-01-15T09:33:47.252Z,1003.78
2019-01-15T09:34:47.213Z,1003.85
2019-01-15T09:35:47.200Z,1003.78
2019-01-15T09:36:47.195Z,1003.79
2019-01-15T09:37:47.177Z,1003.78
2019-01-15T09:38:47.201Z,1003.67
2019-01-15T09:39:47.160Z,1003.69
2019-01-15T09:40:47.146Z,1003.64
2019-01-15T09:41:47.134Z,1003.68
2019-01-15T09:42:47.128Z,1003.64
2019-01-15T09:43:47.124Z,1003.68
2019-01-15T09:44:47.119Z,1003.61
2019-01-15T09:45:47.089Z,1003.60
2019-01-15T09:46:47.075Z,1003.60
2019-01-15T09:47:47.065Z,1003.65
2019-01-15T09:48:47.083Z,1003.62
2019-01-15T09:49:47.055Z,1003.64
2019-01-15T09:50:47.031Z,1003.62
2019-01-15T09:51:47.020Z,1003.65
2019-01-15T09:52:47.007Z,1003.64
2019-01-15T09:53:46.996Z,1003.65
2019-01-15T09:54:47.008Z,1003.60
2019-01-15T09:55:46.973Z,1003.64
2019-01-15T09:56:46.983Z,1003.62
2019-01-15T09:57:46.953Z,1003.65
2019-01-15T09:58:46.938Z,1003.63
2019-01-15T09:59:46.954Z,1003.56
2019-01-15T10:00:46.922Z,1003.61
2019-01-15T10:01:46.902Z,1003.53
2019-01-15T10:02:46.917Z,1003.57
2019-01-15T10:03:46.933Z,1003.63
2019-01-15T10:04:46.893Z,1003.49
2019-01-15T10:05:46.862Z,1003.62
2019-01-15T10:06:46.850Z,1003.63
2019-01-15T10:07:46.858Z,1003.60
2019-01-15T10:08:46.824Z,1003.61
2019-01-15T10:09:46.851Z,1003.57
2019-01-15T10:10:46.802Z,1003.54
2019-01-15T10:11:46.804Z,1003.49
2019-01-15T10:12:46.784Z,1003.50
2019-01-15T10:13:46.773Z,1003.63
2019-01-15T10:14:46.779Z,1003.50
2019-01-15T10:15:46.793Z,1003.51
2019-01-15T10:16:46.741Z,1003.46
2019-01-15T10:17:46.724Z,1003.52
2019-01-15T10:18:46.719Z,1003.45
2019-01-15T10:19:46.716Z,1003.44
2019-01-15T10:20:46.692Z,1003.41
2019-01-15T10:21:46.678Z,1003.47
2019-01-15T10:22:46.666Z,1003.41
2019-01-15T10:23:46.651Z,1003.40
2019-01-15T10:24:46.676Z,1003.38
2019-01-15T10:25:46.647Z,1003.44
2019-01-15T10:26:46.628Z,1003.46
2019-01-15T10:27:46.612Z,1003.47
2019-01-15T10:28:46.606Z,1003.40
2019-01-15T10:29:46.623Z,1003.34
2019-01-15T10:30:46.587Z,1003.34
2019-01-15T10:31:46.588Z,1003.37
2019-01-15T10:32:46.564Z,1003.37
2019-01-15T10:33:46.542Z,1003.45
2019-01-15T10:34:46.540Z,1003.44
2019-01-15T10:35:46.539Z,1003.42
2019-01-15T10:36:46.510Z,1003.44
2019-01-15T10:37:46.489Z,1003.33
2019-01-15T10:38:46.484Z,1003.36
2019-01-15T10:39:46.478Z,1003.36
2019-01-15T10:40:46.482Z,1003.40
2019-01-15T10:41:46.469Z,1003.39
2019-01-15T10:42:46.438Z,1003.34
2019-01-15T10:43:46.438Z,1003.32
2019-01-15T10:44:48.701Z,1003.33
2019-01-15T10:45:46.427Z,1003.33
2019-01-15T10:46:46.417Z,1003.35
2019-01-15T10:47:46.400Z,1003.33
2019-01-15T10:48:46.367Z,1003.36
2019-01-15T10:49:46.356Z,1003.30
2019-01-15T10:50:46.363Z,1003.25
2019-01-15T10:51:46.355Z,1003.29
2019-01-15T10:52:46.328Z,1003.20
2019-01-15T10:53:46.316Z,1003.20
2019-01-15T10:54:46.302Z,1003.18
2019-01-15T10:55:46.318Z,1003.22
2019-01-15T10:56:46.288Z,1003.25
2019-01-15T10:57:46.273Z,1003.21
2019-01-15T10:58:46.261Z,1003.26
2019-01-15T10:59:46.257Z,1003.27
2019-01-15T11:00:46.248Z,1003.25
2019-01-15T11:01:46.233Z,1003.18
2019-01-15T11:02:46.216Z,1003.19
2019-01-15T11:03:46.206Z,1003.20
2019-01-15T11:04:46.184Z,1003.13
2019-01-15T11:05:46.227Z,1003.21
2019-01-15T11:06:46.166Z,1003.24
2019-01-15T11:07:46.155Z,1003.16
2019-01-15T11:08:46.149Z,1003.18
2019-01-15T11:09:46.155Z,1003.21
2019-01-15T11:10:46.163Z,1003.16
2019-01-15T11:11:46.109Z,1003.20
2019-01-15T11:12:46.097Z,1003.17
2019-01-15T11:13:46.089Z,1003.21
2019-01-15T11:14:46.102Z,1003.27
2019-01-15T11:15:46.118Z,1003.23
2019-01-15T11:16:46.055Z,1003.19
2019-01-15T11:17:46.043Z,1003.24
2019-01-15T11:18:46.035Z,1003.26
2019-01-15T11:19:46.018Z,1003.24
2019-01-15T11:20:46.501Z,1003.23
2019-01-15T11:21:46.024Z,1003.22
2019-01-15T11:22:46.001Z,1003.11
2019-01-15T11:23:45.976Z,1003.15
2019-01-15T11:24:45.964Z,1003.11
2019-01-15T11:25:47.391Z,1003.12
2019-01-15T11:26:45.969Z,1003.28
2019-01-15T11:27:45.924Z,1003.15
2019-01-15T11:28:45.912Z,1003.18
2019-01-15T11:29:45.978Z,1003.18
2019-01-15T11:30:45.906Z,1003.13
2019-01-15T11:31:45.914Z,1003.13
2019-01-15T11:32:45.868Z,1003.16
2019-01-15T11:33:45.863Z,1003.14
2019-01-15T11:34:45.849Z,1003.06
2019-01-15T11:35:45.840Z,1003.11
2019-01-15T11:36:45.853Z,1003.08
2019-01-15T11:37:45.829Z,1003.06
2019-01-15T11:38:45.805Z,1003.07
2019-01-15T11:39:45.801Z,1003.07
2019-01-15T11:40:45.807Z,1003.03
2019-01-15T11:41:45.793Z,1003.04
2019-01-15T11:42:45.763Z,1003.06
2019-01-15T11:43:45.764Z,1003.05
2019-01-15T11:44:45.767Z,1003.07
2019-01-15T11:45:45.732Z,1003.04
2019-01-15T11:46:45.741Z,1002.97
2019-01-15T11:47:45.701Z,1002.97
2019-01-15T11:48:45.703Z,1002.95
2019-01-15T11:49:45.684Z,1003.03
2019-01-15T11:50:45.668Z,1002.96
2019-01-15T11:51:45.692Z,1002.82
2019-01-15T11:52:45.642Z,1002.82
2019-01-15T11:53:45.655Z,1002.88
2019-01-15T11:54:45.617Z,1002.87
2019-01-15T11:55:45.616Z,1002.83
2019-01-15T11:56:45.624Z,1002.83
2019-01-15T11:57:45.594Z,1002.86
2019-01-15T11:58:45.578Z,1002.80
2019-01-15T11:59:45.607Z,1002.82
2019-01-15T12:00:45.550Z,1002.77
2019-01-15T12:01:45.616Z,1002.79
2019-01-15T12:02:45.547Z,1002.82
2019-01-15T12:03:45.519Z,1002.70
2019-01-15T12:04:45.511Z,1002.79
2019-01-15T12:05:45.497Z,1002.76